Time;durP1;ratioP1;P1;durP2;ratioP2;P2;SDS_P1;SDS_P2;PMS_P1;PMS_P2;Temp;Humidity;BMP_temperature;BMP_pressure;BME280_temperature;BME280_humidity;BME280_pressure;Samples;Min_cycle;Max_cycle;Signal;HPM_P1;HPM_P2
2022/11/13 00:01:45;;;;;;;44.65;27.77;;;5.80;99.90;;;;;;4996885;28;20194;-82
2022/11/13 00:04:11;;;;;;;42.47;26.05;;;5.90;99.90;;;;;;5013926;28;20056;-83
2022/11/13 00:06:37;;;;;;;43.72;27.70;;;5.90;99.90;;;;;;5013962;28;20050;-82
2022/11/13 00:09:03;;;;;;;47.00;28.58;;;5.90;99.90;;;;;;5014435;28;20056;-82
2022/11/13 00:11:29;;;;;;;46.25;27.05;;;6.00;99.90;;;;;;5016045;28;20049;-83
2022/11/13 00:13:55;;;;;;;41.88;26.48;;;6.00;99.90;;;;;;5016635;28;20089;-81
2022/11/13 00:16:21;;;;;;;49.30;27.98;;;6.00;99.90;;;;;;4999851;28;20056;-81
2022/11/13 00:18:47;;;;;;;45.85;28.40;;;6.00;99.90;;;;;;4998787;28;20057;-84
2022/11/13 00:21:16;;;;;;;43.72;27.35;;;6.00;99.90;;;;;;5019338;28;20038;-81
2022/11/13 00:23:43;;;;;;;47.75;28.52;;;6.00;99.90;;;;;;4996312;28;20112;-83
2022/11/13 00:26:10;;;;;;;48.67;30.33;;;6.00;99.90;;;;;;5020044;28;20076;-83
2022/11/13 00:28:36;;;;;;;45.22;28.73;;;6.00;99.90;;;;;;5015925;28;20545;-83
2022/11/13 00:31:05;;;;;;;45.63;27.58;;;6.10;99.90;;;;;;5014824;28;20081;-85
2022/11/13 00:33:31;;;;;;;45.97;29.65;;;6.10;99.90;;;;;;5013285;28;20572;-81
2022/11/13 00:36:19;;;;;;;43.85;27.73;;;6.10;99.90;;;;;;4995751;28;20394;-81
2022/11/13 00:38:44;;;;;;;40.08;25.98;;;6.10;99.90;;;;;;5013029;28;20141;-82
2022/11/13 00:41:11;;;;;;;46.72;28.40;;;6.20;99.90;;;;;;5012943;28;20124;-83
2022/11/13 00:43:37;;;;;;;42.20;28.20;;;6.20;99.90;;;;;;5013204;28;20057;-82
2022/11/13 00:46:05;;;;;;;46.42;27.75;;;6.30;99.90;;;;;;5012815;28;20406;-85
2022/11/13 00:48:31;;;;;;;42.55;25.35;;;6.30;99.90;;;;;;4995224;28;20120;-81
2022/11/13 00:50:57;;;;;;;43.05;27.35;;;6.30;99.90;;;;;;4995702;28;20050;-85
2022/11/13 00:53:23;;;;;;;40.58;26.13;;;6.30;99.90;;;;;;5012929;28;20402;-84
2022/11/13 00:55:51;;;;;;;41.85;26.52;;;6.30;99.90;;;;;;4978834;28;20567;-85
2022/11/13 00:58:17;;;;;;;41.17;26.92;;;6.30;99.90;;;;;;5013193;28;20058;-84
2022/11/13 01:00:45;;;;;;;36.60;22.13;;;6.30;99.90;;;;;;5012080;28;20053;-85
2022/11/13 01:03:13;;;;;;;51.42;27.92;;;6.30;99.90;;;;;;4994829;28;20065;-83
2022/11/13 01:05:41;;;;;;;46.50;28.45;;;6.30;99.90;;;;;;5013040;28;20053;-82
2022/11/13 01:08:08;;;;;;;39.40;27.58;;;6.30;99.90;;;;;;5012296;28;20080;-83
2022/11/13 01:10:37;;;;;;;43.17;24.75;;;6.30;99.90;;;;;;5012424;28;20184;-81
2022/11/13 01:13:03;;;;;;;42.15;26.02;;;6.30;99.90;;;;;;5012861;28;20143;-82
2022/11/13 01:15:29;;;;;;;45.53;26.65;;;6.30;99.90;;;;;;5012300;28;20089;-83
2022/11/13 01:17:55;;;;;;;44.92;25.65;;;6.30;99.90;;;;;;5012269;28;20054;-83
2022/11/13 01:20:22;;;;;;;36.15;24.42;;;6.30;99.90;;;;;;4995332;28;20056;-84
2022/11/13 01:22:48;;;;;;;37.15;23.88;;;6.30;99.90;;;;;;5012957;28;20062;-82
2022/11/13 01:25:14;;;;;;;39.17;25.05;;;6.30;99.90;;;;;;5012191;28;20632;-82
2022/11/13 01:27:41;;;;;;;41.28;27.00;;;6.30;99.90;;;;;;5012206;28;20060;-84
2022/11/13 01:30:07;;;;;;;43.55;27.08;;;6.30;99.90;;;;;;5014231;28;20050;-82
2022/11/13 01:32:33;;;;;;;40.40;26.88;;;6.40;99.90;;;;;;4996999;28;20514;-84
2022/11/13 01:34:59;;;;;;;45.17;27.73;;;6.40;99.90;;;;;;5013600;28;20540;-82
2022/11/13 01:37:25;;;;;;;37.67;25.55;;;6.40;99.90;;;;;;4994591;28;20081;-85
2022/11/13 01:39:51;;;;;;;40.28;26.80;;;6.40;99.90;;;;;;5013134;28;20120;-85
2022/11/13 01:42:17;;;;;;;41.40;25.65;;;6.50;99.90;;;;;;5012034;28;20577;-82
2022/11/13 01:44:59;;;;;;;35.40;24.45;;;6.50;99.90;;;;;;5011531;28;20050;-81
2022/11/13 01:47:26;;;;;;;42.15;28.20;;;6.50;99.90;;;;;;5012012;28;20453;-82
2022/11/13 01:49:56;;;;;;;40.20;26.92;;;6.50;99.90;;;;;;5011719;28;20050;-81
2022/11/13 01:52:28;;;;;;;46.67;26.50;;;6.50;99.90;;;;;;5012607;28;20528;-81
2022/11/13 01:55:00;;;;;;;32.97;23.52;;;6.50;99.90;;;;;;4996408;28;20053;-83
2022/11/13 01:57:26;;;;;;;38.03;25.15;;;6.40;99.90;;;;;;5013772;28;20437;-81
2022/11/13 01:59:59;;;;;;;34.83;23.52;;;6.40;99.90;;;;;;5011765;28;20453;-81
2022/11/13 02:02:25;;;;;;;39.88;25.50;;;6.40;99.90;;;;;;4993610;28;20093;-81
2022/11/13 02:04:51;;;;;;;33.45;24.02;;;6.30;99.90;;;;;;4993646;28;20052;-82
2022/11/13 02:07:20;;;;;;;37.70;25.50;;;6.30;99.90;;;;;;5011414;28;20565;-82
2022/11/13 02:09:48;;;;;;;44.05;26.88;;;6.30;99.90;;;;;;4993805;28;20081;-82
2022/11/13 02:12:28;;;;;;;37.25;23.63;;;6.30;99.90;;;;;;5011426;28;20059;-82
2022/11/13 02:14:56;;;;;;;36.20;23.73;;;6.30;99.90;;;;;;4978202;28;20120;-81
2022/11/13 02:17:34;;;;;;;33.10;22.63;;;6.30;99.90;;;;;;5011379;28;20509;-81
2022/11/13 02:20:04;;;;;;;41.85;25.85;;;6.20;99.90;;;;;;4995566;28;20419;-83
2022/11/13 02:22:34;;;;;;;37.70;24.60;;;6.20;99.90;;;;;;4993347;28;20057;-82
2022/11/13 02:25:01;;;;;;;41.40;26.42;;;6.20;99.90;;;;;;5011374;28;20049;-82
2022/11/13 02:27:43;;;;;;;36.83;24.15;;;6.20;99.90;;;;;;5011073;28;20049;-85
2022/11/13 02:30:16;;;;;;;39.35;25.75;;;6.20;99.90;;;;;;4994663;28;20452;-82
2022/11/13 02:32:49;;;;;;;40.47;26.35;;;6.20;99.90;;;;;;5010967;28;20053;-82
2022/11/13 02:35:21;;;;;;;39.65;25.73;;;6.20;99.90;;;;;;5011000;28;20046;-85
2022/11/13 02:37:47;;;;;;;43.25;25.80;;;6.20;99.90;;;;;;5011166;28;20046;-84
2022/11/13 02:40:13;;;;;;;42.53;27.13;;;6.20;99.90;;;;;;5009596;28;20103;-83
2022/11/13 02:42:42;;;;;;;47.10;28.33;;;6.20;99.90;;;;;;5011093;28;20037;-83
2022/11/13 02:45:08;;;;;;;42.47;27.60;;;6.30;99.90;;;;;;4994099;28;20088;-82
2022/11/13 02:47:34;;;;;;;44.10;29.90;;;6.30;99.90;;;;;;4993437;28;20050;-82
2022/11/13 02:50:00;;;;;;;46.58;30.13;;;6.30;99.90;;;;;;5010886;28;20107;-82
2022/11/13 02:52:26;;;;;;;65.70;33.75;;;6.30;99.90;;;;;;5011037;28;20134;-83
2022/11/13 02:54:52;;;;;;;45.90;29.20;;;6.40;99.90;;;;;;5011369;28;20050;-82
2022/11/13 02:57:18;;;;;;;48.47;30.27;;;6.40;99.90;;;;;;4993959;28;20053;-83
2022/11/13 02:59:44;;;;;;;46.58;29.60;;;6.50;99.90;;;;;;5012414;28;20132;-83
2022/11/13 03:02:10;;;;;;;45.25;29.05;;;6.50;99.90;;;;;;4994194;28;20046;-84
2022/11/13 03:04:36;;;;;;;46.58;29.45;;;6.50;99.90;;;;;;5009375;28;20052;-82
2022/11/13 03:07:02;;;;;;;45.00;30.85;;;6.50;99.90;;;;;;4992984;28;20049;-82
2022/11/13 03:09:28;;;;;;;44.25;28.35;;;6.50;99.90;;;;;;4993389;28;20046;-82
2022/11/13 03:11:54;;;;;;;45.45;28.35;;;6.50;99.90;;;;;;5011224;28;20065;-82
2022/11/13 03:14:20;;;;;;;45.15;28.25;;;6.60;99.90;;;;;;4992740;28;20084;-82
2022/11/13 03:16:46;;;;;;;41.45;26.33;;;6.60;99.90;;;;;;4993270;28;20072;-86
2022/11/13 03:19:12;;;;;;;41.85;26.55;;;6.50;99.90;;;;;;5010604;28;20509;-82
2022/11/13 03:21:38;;;;;;;46.03;26.63;;;6.60;99.90;;;;;;5010897;28;20041;-85
2022/11/13 03:24:04;;;;;;;42.72;27.15;;;6.60;99.90;;;;;;4993733;28;20112;-83
2022/11/13 03:26:30;;;;;;;39.10;26.15;;;6.60;99.90;;;;;;4993406;28;20146;-85
2022/11/13 03:28:56;;;;;;;38.88;24.70;;;6.60;99.90;;;;;;5012023;28;20165;-83
2022/11/13 03:31:22;;;;;;;39.03;25.08;;;6.60;99.90;;;;;;5011882;28;20054;-83
2022/11/13 03:33:52;;;;;;;41.55;26.27;;;6.60;99.90;;;;;;5010480;28;20371;-82
2022/11/13 03:36:18;;;;;;;38.88;25.67;;;6.60;99.90;;;;;;4993630;28;20060;-85
2022/11/13 03:38:44;;;;;;;37.53;23.60;;;6.60;99.90;;;;;;5010493;28;20060;-83
2022/11/13 03:41:09;;;;;;;32.97;22.00;;;6.60;99.90;;;;;;5010206;28;20138;-82
2022/11/13 03:43:35;;;;;;;32.28;22.02;;;6.70;99.90;;;;;;5010684;28;20137;-82
2022/11/13 03:46:01;;;;;;;32.95;21.27;;;6.70;99.90;;;;;;5010332;28;20056;-85
2022/11/13 03:48:27;;;;;;;40.28;24.40;;;6.70;99.90;;;;;;4995140;28;20046;-86
2022/11/13 03:50:54;;;;;;;39.13;23.15;;;6.70;99.90;;;;;;5014306;28;20053;-86
2022/11/13 03:53:21;;;;;;;35.20;23.02;;;6.70;99.90;;;;;;4979560;28;20046;-81
2022/11/13 03:55:47;;;;;;;32.75;21.45;;;6.70;99.90;;;;;;5014132;28;20050;-83
2022/11/13 03:58:13;;;;;;;31.23;22.17;;;6.70;99.90;;;;;;5015289;28;20517;-82
2022/11/13 04:00:41;;;;;;;30.48;22.00;;;6.70;99.90;;;;;;4996622;28;20050;-83
2022/11/13 04:03:07;;;;;;;32.45;22.90;;;6.70;99.90;;;;;;5013890;28;20061;-84
2022/11/13 04:05:33;;;;;;;39.28;24.52;;;6.80;99.90;;;;;;5013763;28;20136;-82
2022/11/13 04:07:59;;;;;;;34.47;22.23;;;6.70;99.90;;;;;;5013617;28;20046;-83
2022/11/13 04:10:25;;;;;;;35.95;20.95;;;6.70;99.90;;;;;;5013543;28;20111;-82
2022/11/13 04:12:51;;;;;;;27.80;19.42;;;6.80;99.90;;;;;;4995759;28;20524;-81
2022/11/13 04:15:17;;;;;;;29.55;21.00;;;6.80;99.90;;;;;;5013547;28;20049;-82
2022/11/13 04:17:43;;;;;;;27.88;19.58;;;6.90;99.90;;;;;;4995976;28;20121;-82
2022/11/13 04:20:10;;;;;;;34.97;22.00;;;6.90;99.90;;;;;;5013405;28;20131;-83
2022/11/13 04:22:36;;;;;;;30.73;21.17;;;7.00;99.90;;;;;;5013871;28;20062;-83
2022/11/13 04:25:04;;;;;;;31.50;21.38;;;7.10;99.90;;;;;;5018652;28;20053;-83
2022/11/13 04:27:30;;;;;;;30.33;20.23;;;7.20;99.90;;;;;;5017455;28;20057;-82
2022/11/13 04:29:56;;;;;;;27.67;19.88;;;7.20;99.90;;;;;;4995694;28;20054;-82
2022/11/13 04:32:22;;;;;;;26.10;18.45;;;7.30;99.90;;;;;;5013138;28;20835;-82
2022/11/13 04:34:48;;;;;;;29.02;19.08;;;7.30;99.90;;;;;;5013267;28;20153;-82
2022/11/13 04:37:14;;;;;;;29.67;18.80;;;7.30;99.90;;;;;;5013456;28;20068;-84
2022/11/13 04:39:39;;;;;;;28.10;18.13;;;7.30;99.90;;;;;;5012828;28;20054;-80
2022/11/13 04:44:50;;;;;;;25.60;17.50;;;7.30;99.90;;;;;;5013218;28;20048;-81
2022/11/13 04:47:15;;;;;;;28.35;18.70;;;7.40;99.90;;;;;;5012803;28;20049;-81
2022/11/13 04:49:41;;;;;;;26.58;17.58;;;7.40;99.90;;;;;;4995314;28;20049;-82
2022/11/13 04:52:07;;;;;;;26.63;18.10;;;7.40;99.90;;;;;;5012981;28;20046;-84
2022/11/13 04:54:33;;;;;;;26.58;17.88;;;7.40;99.90;;;;;;5014417;28;20466;-82
2022/11/13 04:56:59;;;;;;;28.17;17.42;;;7.40;99.90;;;;;;5000454;28;20136;-81
2022/11/13 04:59:25;;;;;;;26.73;18.50;;;7.40;99.90;;;;;;5012859;28;20133;-82
2022/11/13 05:01:51;;;;;;;22.95;16.15;;;7.40;99.90;;;;;;5012511;28;20153;-82
2022/11/13 05:04:16;;;;;;;24.40;16.42;;;7.40;99.90;;;;;;5012508;28;20104;-81
2022/11/13 05:06:42;;;;;;;25.08;16.95;;;7.40;99.90;;;;;;5013223;28;20054;-81
2022/11/13 05:09:10;;;;;;;26.10;16.52;;;7.40;99.90;;;;;;5012550;28;20092;-81
2022/11/13 05:11:35;;;;;;;25.08;17.38;;;7.40;99.90;;;;;;5012485;28;20084;-81
2022/11/13 05:14:02;;;;;;;23.02;16.48;;;7.40;99.90;;;;;;4994668;28;20112;-82
2022/11/13 05:16:29;;;;;;;24.98;15.70;;;7.40;99.90;;;;;;5012290;28;20050;-81
2022/11/13 05:18:59;;;;;;;24.98;16.00;;;7.40;99.90;;;;;;4995656;28;20133;-83
2022/11/13 05:21:25;;;;;;;21.98;15.57;;;7.40;99.90;;;;;;5012834;28;20393;-83
2022/11/13 05:23:51;;;;;;;24.38;16.73;;;7.40;99.90;;;;;;5012819;28;20133;-85
2022/11/13 05:26:17;;;;;;;22.92;14.68;;;7.40;99.90;;;;;;5015334;28;20502;-81
2022/11/13 05:28:43;;;;;;;24.55;15.82;;;7.40;99.90;;;;;;5012320;28;20126;-81
2022/11/13 05:31:11;;;;;;;25.92;17.38;;;7.40;99.90;;;;;;4995040;28;20050;-80
2022/11/13 05:33:39;;;;;;;22.15;14.43;;;7.40;99.90;;;;;;5012578;28;20056;-81
2022/11/13 05:36:13;;;;;;;19.75;15.35;;;7.30;99.90;;;;;;5012590;28;20162;-82
2022/11/13 05:38:40;;;;;;;22.13;14.20;;;7.30;99.90;;;;;;5012301;28;20410;-83
2022/11/13 05:41:11;;;;;;;23.92;14.95;;;7.30;99.90;;;;;;4978344;28;20089;-81
2022/11/13 05:43:38;;;;;;;20.73;14.57;;;7.30;99.90;;;;;;5012128;28;20565;-82
2022/11/13 05:46:27;;;;;;;22.95;14.68;;;7.30;99.90;;;;;;4994533;28;20144;-83
2022/11/13 05:48:55;;;;;;;24.33;15.48;;;7.30;99.90;;;;;;5011629;28;20054;-85
2022/11/13 05:51:25;;;;;;;21.27;14.00;;;7.30;99.90;;;;;;5014762;28;20050;-85
2022/11/13 05:53:52;;;;;;;22.60;15.30;;;7.30;99.90;;;;;;4995450;28;20045;-82
2022/11/13 05:56:25;;;;;;;23.20;14.10;;;7.30;99.90;;;;;;5012329;28;20081;-83
2022/11/13 05:58:53;;;;;;;20.55;14.85;;;7.30;99.90;;;;;;5011928;28;20066;-81
2022/11/13 06:01:22;;;;;;;22.25;14.57;;;7.30;99.90;;;;;;5011854;28;20372;-80
2022/11/13 06:03:48;;;;;;;22.60;15.35;;;7.30;99.90;;;;;;5011840;28;20053;-81
2022/11/13 06:06:17;;;;;;;26.73;15.57;;;7.20;99.90;;;;;;5011552;28;20521;-85
2022/11/13 06:08:44;;;;;;;22.17;15.75;;;7.20;99.90;;;;;;5011517;28;20054;-81
2022/11/13 06:11:15;;;;;;;19.92;14.32;;;7.10;99.90;;;;;;5011132;28;20054;-82
2022/11/13 06:13:41;;;;;;;25.05;15.05;;;7.00;99.90;;;;;;5011199;28;20060;-83
2022/11/13 06:16:10;;;;;;;20.70;14.30;;;7.00;99.90;;;;;;5011553;28;20093;-85
2022/11/13 06:18:37;;;;;;;20.33;14.25;;;6.90;99.90;;;;;;4994486;28;20144;-85
2022/11/13 06:21:05;;;;;;;24.60;15.73;;;6.90;99.90;;;;;;5013024;28;20101;-81
2022/11/13 06:23:33;;;;;;;21.80;14.95;;;6.80;99.90;;;;;;4993344;28;20065;-81
2022/11/13 06:26:01;;;;;;;26.58;15.10;;;6.80;99.90;;;;;;5011404;28;20050;-85
2022/11/13 06:28:27;;;;;;;22.45;15.52;;;6.70;99.90;;;;;;5011607;28;20116;-81
2022/11/13 06:30:53;;;;;;;26.38;16.05;;;6.70;99.90;;;;;;5011273;28;20268;-84
2022/11/13 06:33:19;;;;;;;24.58;16.77;;;6.70;99.90;;;;;;5016106;28;20128;-82
2022/11/13 06:35:45;;;;;;;23.35;14.40;;;6.70;99.90;;;;;;5011530;28;20041;-82
2022/11/13 06:38:11;;;;;;;25.35;16.35;;;6.70;99.90;;;;;;5011481;28;20083;-83
2022/11/13 06:40:38;;;;;;;21.60;15.07;;;6.70;99.90;;;;;;5011919;28;20049;-84
2022/11/13 06:43:04;;;;;;;21.70;14.07;;;6.60;99.90;;;;;;5011691;28;20054;-82
2022/11/13 06:45:30;;;;;;;24.33;15.48;;;6.60;99.90;;;;;;5011091;28;20046;-81
2022/11/13 06:47:56;;;;;;;20.25;14.88;;;6.50;99.90;;;;;;4993592;28;20108;-82
2022/11/13 06:50:21;;;;;;;25.23;15.45;;;6.50;99.90;;;;;;4993770;28;20065;-83
2022/11/13 06:52:47;;;;;;;21.30;15.07;;;6.50;99.90;;;;;;5010672;28;20395;-82
2022/11/13 06:55:13;;;;;;;23.60;16.10;;;6.50;99.90;;;;;;4993797;28;20054;-83
2022/11/13 06:57:39;;;;;;;25.52;16.45;;;6.60;99.90;;;;;;4993132;28;20061;-84
2022/11/13 07:00:05;;;;;;;26.33;15.57;;;6.60;99.90;;;;;;5011999;28;20100;-83
2022/11/13 07:02:31;;;;;;;24.33;15.45;;;6.60;99.90;;;;;;5011275;28;20129;-85
2022/11/13 07:05:00;;;;;;;20.80;14.82;;;6.60;99.90;;;;;;5010502;28;20457;-83
2022/11/13 07:07:26;;;;;;;23.30;16.60;;;6.50;99.90;;;;;;4993047;28;20050;-82
2022/11/13 07:09:52;;;;;;;22.63;15.20;;;6.60;99.90;;;;;;4993216;28;20054;-83
2022/11/13 07:12:18;;;;;;;23.00;15.35;;;6.50;99.90;;;;;;5011160;28;20105;-83
2022/11/13 07:14:44;;;;;;;23.15;15.07;;;6.50;99.90;;;;;;4994053;28;20058;-83
2022/11/13 07:17:10;;;;;;;25.15;13.90;;;6.50;99.90;;;;;;5010815;28;20049;-82
2022/11/13 07:19:36;;;;;;;23.52;15.88;;;6.50;99.90;;;;;;5011122;28;20038;-84
2022/11/13 07:22:01;;;;;;;24.13;16.13;;;6.50;99.90;;;;;;5011756;28;20061;-82
2022/11/13 07:24:27;;;;;;;21.75;14.30;;;6.50;99.90;;;;;;5018921;28;20211;-82
2022/11/13 07:26:53;;;;;;;18.23;13.25;;;6.50;99.90;;;;;;4998802;28;20050;-82
2022/11/13 07:29:19;;;;;;;23.35;15.00;;;6.50;99.90;;;;;;5014396;28;20692;-82
2022/11/13 07:31:44;;;;;;;20.83;14.55;;;6.50;99.90;;;;;;4997937;28;20042;-83
2022/11/13 07:34:10;;;;;;;22.08;14.82;;;6.50;99.90;;;;;;5016677;28;20490;-81
2022/11/13 07:36:36;;;;;;;24.88;15.40;;;6.60;99.90;;;;;;5014818;28;20052;-83
2022/11/13 07:39:02;;;;;;;23.33;15.30;;;6.60;99.90;;;;;;4996752;28;20424;-83
2022/11/13 07:41:28;;;;;;;25.88;14.68;;;6.60;99.90;;;;;;5014438;28;20052;-82
2022/11/13 07:43:54;;;;;;;21.00;14.25;;;6.70;99.90;;;;;;4980598;28;20061;-83
2022/11/13 07:46:20;;;;;;;26.33;13.93;;;6.70;99.90;;;;;;4980744;28;20082;-84
2022/11/13 07:48:45;;;;;;;20.45;15.05;;;6.70;99.90;;;;;;5016183;28;20050;-83
2022/11/13 07:51:12;;;;;;;24.02;14.30;;;6.80;99.90;;;;;;5000404;28;20085;-82
2022/11/13 07:53:37;;;;;;;19.63;13.23;;;6.90;99.90;;;;;;5018924;28;20123;-83
2022/11/13 07:56:05;;;;;;;21.45;13.27;;;6.90;99.90;;;;;;5001740;28;20769;-83
2022/11/13 07:58:31;;;;;;;24.08;13.52;;;7.00;99.90;;;;;;5020342;28;20041;-82
2022/11/13 08:01:05;;;;;;;19.42;12.82;;;7.20;99.90;;;;;;5019999;28;20101;-83
2022/11/13 08:03:31;;;;;;;18.63;12.05;;;7.20;99.90;;;;;;5016264;28;20137;-81
2022/11/13 08:06:02;;;;;;;20.23;13.63;;;7.30;99.90;;;;;;5015459;28;20133;-82
2022/11/13 08:08:28;;;;;;;17.27;12.52;;;7.40;99.90;;;;;;5014975;28;20072;-82
2022/11/13 08:10:54;;;;;;;18.48;12.18;;;7.40;99.90;;;;;;5016153;28;20502;-82
2022/11/13 08:13:20;;;;;;;19.08;12.93;;;7.50;99.90;;;;;;4996609;28;20098;-83
2022/11/13 08:15:45;;;;;;;18.13;12.00;;;7.70;99.90;;;;;;5014493;28;20050;-83
2022/11/13 08:18:11;;;;;;;23.15;13.13;;;7.80;99.90;;;;;;5016348;28;20076;-83
2022/11/13 08:20:37;;;;;;;44.47;14.02;;;7.90;99.90;;;;;;4998538;28;20054;-84
2022/11/13 08:23:04;;;;;;;16.67;11.75;;;8.00;99.90;;;;;;5015950;28;20050;-84
2022/11/13 08:25:31;;;;;;;17.98;11.05;;;8.10;99.90;;;;;;4985987;28;20045;-84
2022/11/13 08:27:58;;;;;;;19.20;11.57;;;8.20;99.90;;;;;;5004378;28;20141;-83
2022/11/13 08:30:25;;;;;;;16.67;11.15;;;8.40;99.90;;;;;;5020504;28;20081;-84
2022/11/13 08:32:51;;;;;;;19.25;11.95;;;8.50;99.90;;;;;;5001863;28;20054;-82
2022/11/13 08:35:18;;;;;;;16.60;11.30;;;8.60;99.90;;;;;;4999419;28;20088;-83
2022/11/13 08:37:47;;;;;;;22.48;13.45;;;8.70;99.90;;;;;;5001616;28;20463;-82
2022/11/13 08:40:14;;;;;;;17.48;12.43;;;8.80;99.90;;;;;;5002395;28;20053;-83
2022/11/13 08:42:40;;;;;;;20.70;11.45;;;8.90;99.90;;;;;;5000756;28;20140;-83
2022/11/13 08:45:06;;;;;;;18.02;11.20;;;9.00;99.90;;;;;;5014191;28;20184;-81
2022/11/13 08:47:32;;;;;;;19.25;11.95;;;9.10;99.90;;;;;;5013728;28;20080;-84
2022/11/13 08:49:58;;;;;;;17.15;11.93;;;9.20;99.90;;;;;;5014536;28;20077;-82
2022/11/13 08:52:24;;;;;;;16.60;11.88;;;9.30;99.90;;;;;;4995607;28;20066;-81
2022/11/13 08:54:50;;;;;;;16.98;11.38;;;9.40;99.90;;;;;;5012674;28;20135;-80
2022/11/13 08:57:16;;;;;;;17.80;12.48;;;9.50;99.90;;;;;;5013058;28;20053;-84
2022/11/13 08:59:42;;;;;;;16.85;10.77;;;9.60;99.90;;;;;;5013001;28;20108;-82
2022/11/13 09:02:11;;;;;;;15.60;11.05;;;9.60;99.90;;;;;;4995101;28;20414;-85
2022/11/13 09:04:37;;;;;;;17.23;11.23;;;9.80;99.90;;;;;;5012742;28;20113;-86
2022/11/13 09:07:03;;;;;;;17.30;11.20;;;9.90;99.90;;;;;;5013098;28;20077;-80
2022/11/13 09:09:29;;;;;;;14.38;10.40;;;9.90;99.90;;;;;;5014592;28;20494;-81
2022/11/13 09:11:55;;;;;;;15.73;10.93;;;10.10;99.90;;;;;;5012638;28;20126;-82
2022/11/13 09:14:21;;;;;;;17.05;10.65;;;10.10;99.90;;;;;;5012844;28;20598;-81
2022/11/13 09:16:47;;;;;;;14.68;9.80;;;10.20;99.90;;;;;;5012345;28;20045;-85
2022/11/13 09:19:12;;;;;;;16.73;10.40;;;10.30;99.90;;;;;;4995034;28;20387;-83
2022/11/13 09:21:38;;;;;;;13.50;9.40;;;10.40;99.90;;;;;;4994832;28;20064;-81
2022/11/13 09:24:05;;;;;;;15.10;9.93;;;10.50;99.90;;;;;;4994096;28;20099;-82
2022/11/13 09:26:31;;;;;;;14.45;10.00;;;10.50;99.90;;;;;;5012146;28;20513;-81
2022/11/13 09:28:57;;;;;;;15.38;10.15;;;10.60;99.90;;;;;;4994348;28;20064;-81
2022/11/13 09:31:23;;;;;;;14.40;9.80;;;10.60;99.90;;;;;;4994304;28;20050;-82
2022/11/13 09:33:49;;;;;;;14.68;9.70;;;10.60;99.90;;;;;;5012423;28;20132;-81
2022/11/13 09:36:16;;;;;;;13.95;9.32;;;10.60;99.90;;;;;;4996169;28;20053;-85
2022/11/13 09:38:42;;;;;;;14.75;9.18;;;10.60;99.90;;;;;;5012880;28;20144;-86
2022/11/13 09:41:23;;;;;;;13.63;9.05;;;10.70;99.90;;;;;;4994547;28;20132;-85
2022/11/13 09:43:53;;;;;;;12.52;8.65;;;10.80;99.90;;;;;;5011978;28;20108;-85
2022/11/13 09:46:47;;;;;;;13.05;9.38;;;10.90;99.90;;;;;;5011093;28;20120;-83
2022/11/13 09:49:15;;;;;;;16.15;9.05;;;11.00;99.90;;;;;;5011877;28;20135;-82
2022/11/13 09:51:50;;;;;;;14.50;8.95;;;11.20;99.90;;;;;;4994027;28;20045;-85
2022/11/13 09:54:16;;;;;;;13.57;9.95;;;11.40;99.90;;;;;;5011573;28;20049;-82
2022/11/13 09:57:08;;;;;;;13.48;9.20;;;11.60;99.90;;;;;;5012514;28;20054;-81
2022/11/13 09:59:40;;;;;;;12.88;9.52;;;11.90;99.90;;;;;;5011869;28;20053;-84
2022/11/13 10:02:56;;;;;;;12.85;9.20;;;12.00;99.90;;;;;;4994549;28;20061;-80
2022/11/13 10:05:32;;;;;;;14.88;9.98;;;12.10;99.90;;;;;;4942065;28;20057;-83
2022/11/13 10:08:03;;;;;;;14.13;8.95;;;12.00;99.90;;;;;;5013666;28;20081;-83
2022/11/13 10:10:41;;;;;;;12.88;9.20;;;12.20;99.90;;;;;;4994671;28;20476;-86
2022/11/13 10:13:14;;;;;;;14.35;9.27;;;12.20;99.90;;;;;;5012452;28;20086;-83
2022/11/13 10:15:43;;;;;;;12.35;9.23;;;12.40;99.90;;;;;;5011489;28;20056;-86
2022/11/13 10:18:24;;;;;;;13.80;8.75;;;12.50;99.90;;;;;;5012191;28;20054;-86
2022/11/13 10:20:59;;;;;;;13.30;8.55;;;12.70;99.90;;;;;;4994901;28;20080;-85
2022/11/13 10:23:30;;;;;;;12.70;8.40;;;13.00;99.90;;;;;;5011045;28;20049;-85
2022/11/13 10:26:10;;;;;;;11.75;8.23;;;13.30;99.90;;;;;;4977405;28;20052;-82
2022/11/13 10:28:38;;;;;;;12.73;9.25;;;13.30;99.90;;;;;;5011184;28;20056;-83
2022/11/13 10:31:04;;;;;;;13.48;8.90;;;13.50;99.90;;;;;;5011450;28;20050;-85
2022/11/13 10:33:30;;;;;;;12.48;9.13;;;13.50;99.90;;;;;;5011809;28;20129;-82
2022/11/13 10:36:35;;;;;;;12.48;8.48;;;13.60;99.90;;;;;;4994062;28;20050;-82
2022/11/13 10:39:05;;;;;;;15.70;9.73;;;13.90;99.90;;;;;;4990830;28;20413;-84
2022/11/13 10:41:32;;;;;;;14.73;10.18;;;14.10;99.90;;;;;;4998721;28;20057;-82
2022/11/13 10:44:04;;;;;;;15.73;9.45;;;14.30;99.90;;;;;;5012697;28;20057;-84
2022/11/13 10:46:30;;;;;;;16.13;10.30;;;14.50;99.90;;;;;;5011069;28;20050;-82
2022/11/13 10:48:57;;;;;;;14.35;10.02;;;14.60;99.90;;;;;;4993975;28;20108;-83
2022/11/13 10:51:34;;;;;;;13.85;9.20;;;14.70;99.90;;;;;;5012345;28;20110;-85
2022/11/13 10:54:00;;;;;;;11.90;8.73;;;14.90;99.90;;;;;;5015062;28;20902;-82
2022/11/13 10:56:28;;;;;;;16.15;10.13;;;14.80;99.90;;;;;;5014866;28;20474;-85
2022/11/13 10:59:14;;;;;;;12.13;9.15;;;14.90;99.90;;;;;;5022510;28;20065;-81
2022/11/13 11:01:42;;;;;;;13.20;9.13;;;15.10;99.90;;;;;;5019928;28;20410;-89
2022/11/13 11:04:23;;;;;;;11.20;8.30;;;15.50;99.90;;;;;;5020753;28;20056;-82
2022/11/13 11:06:50;;;;;;;13.52;8.57;;;15.60;99.90;;;;;;4997850;28;20084;-81
2022/11/13 11:09:26;;;;;;;12.77;9.45;;;15.50;99.90;;;;;;5016979;28;20050;-87
2022/11/13 11:12:17;;;;;;;16.55;9.20;;;15.40;99.90;;;;;;5015373;28;20046;-85
2022/11/13 11:14:55;;;;;;;13.07;9.20;;;15.50;99.90;;;;;;4996688;28;20124;-80
2022/11/13 11:17:37;;;;;;;12.73;8.10;;;15.70;99.90;;;;;;5014715;28;20046;-82
2022/11/13 11:20:22;;;;;;;14.80;9.82;;;15.90;99.90;;;;;;5014688;28;20049;-82
2022/11/13 11:23:11;;;;;;;13.93;9.98;;;16.00;99.90;;;;;;5015552;28;20052;-87
2022/11/13 11:25:44;;;;;;;18.83;9.85;;;16.20;99.90;;;;;;5018508;28;20045;-85
2022/11/13 11:28:35;;;;;;;11.25;8.65;;;17.30;99.90;;;;;;4997475;28;20128;-81
2022/11/13 11:31:31;;;;;;;11.98;8.77;;;18.20;99.90;;;;;;5014383;28;20490;-81
2022/11/13 11:34:03;;;;;;;13.80;9.10;;;19.40;99.90;;;;;;5015817;28;20057;-85
2022/11/13 11:36:31;;;;;;;12.55;8.23;;;19.10;99.90;;;;;;5014326;28;20137;-82
2022/11/13 11:39:19;;;;;;;14.13;9.27;;;19.20;99.90;;;;;;5014311;28;20097;-88
2022/11/13 11:42:27;;;;;;;12.90;8.32;;;20.20;99.90;;;;;;5015103;28;20093;-89
2022/11/13 11:45:21;;;;;;;12.40;7.85;;;21.10;99.60;;;;;;5016730;28;20084;-83
2022/11/13 11:47:47;;;;;;;12.20;8.10;;;22.00;98.50;;;;;;4996864;28;20104;-80
2022/11/13 11:50:16;;;;;;;11.02;8.10;;;23.00;97.80;;;;;;5014833;28;20050;-82
2022/11/13 11:52:56;;;;;;;9.82;7.60;;;23.50;96.10;;;;;;5016381;28;20111;-80
2022/11/13 11:55:36;;;;;;;10.95;7.38;;;22.20;95.00;;;;;;4996380;28;20057;-81
2022/11/13 11:58:23;;;;;;;11.20;7.68;;;21.10;96.60;;;;;;4998559;28;20129;-83
2022/11/13 12:00:52;;;;;;;12.23;7.85;;;20.10;98.40;;;;;;5014174;28;20405;-83
2022/11/13 12:03:36;;;;;;;12.85;8.68;;;19.30;99.70;;;;;;4997144;28;20081;-81
2022/11/13 12:06:14;;;;;;;15.75;9.55;;;18.60;99.90;;;;;;5017047;28;20103;-80
2022/11/13 12:08:43;;;;;;;16.20;9.00;;;18.60;99.90;;;;;;5015244;28;20450;-82
2022/11/13 12:11:30;;;;;;;10.88;7.85;;;18.30;99.90;;;;;;5016310;28;20045;-82
2022/11/13 12:14:11;;;;;;;10.85;7.78;;;17.90;99.90;;;;;;4998169;28;20092;-82
2022/11/13 12:17:15;;;;;;;12.02;8.07;;;17.70;99.90;;;;;;5014810;28;20045;-87
2022/11/13 12:19:50;;;;;;;15.02;9.57;;;17.10;99.90;;;;;;4974335;28;20053;-89
2022/11/13 12:22:45;;;;;;;13.05;9.00;;;16.70;99.90;;;;;;5015176;28;20406;-89
2022/11/13 12:25:16;;;;;;;;;;;16.50;99.90;;;;;;4967244;28;20121;-82
2022/11/13 12:27:59;;;;;;;14.10;8.68;;;17.00;99.90;;;;;;5015366;28;19969;-81
2022/11/13 12:31:03;;;;;;;14.48;9.35;;;17.60;99.90;;;;;;5015473;28;20054;-83
2022/11/13 12:33:51;;;;;;;14.77;9.10;;;18.90;99.90;;;;;;4975752;28;20042;-81
2022/11/13 12:36:18;;;;;;;24.67;15.18;;;19.30;99.90;;;;;;5015964;28;20045;-81
2022/11/13 12:38:55;;;;;;;12.35;8.98;;;19.80;99.90;;;;;;5013737;28;20056;-81
2022/11/13 12:41:45;;;;;;;12.52;8.15;;;20.40;99.90;;;;;;5016714;28;20140;-81
2022/11/13 12:44:35;;;;;;;12.77;7.90;;;20.70;98.90;;;;;;4997694;28;20053;-83
2022/11/13 12:47:01;;;;;;;13.30;8.43;;;20.60;96.90;;;;;;5016357;28;20498;-84
2022/11/13 12:49:31;;;;;;;12.77;8.23;;;20.60;98.30;;;;;;5013794;28;20050;-84
2022/11/13 12:51:59;;;;;;;11.63;8.50;;;20.60;97.80;;;;;;4998140;28;20053;-86